sensor_id;sensor_type;location;lat;lon;timestamp;pressure;altitude;pressure_sealevel;temperature;humidity
19023;BME280;35226;48.606;8.858;2023-01-09T00:02:06;94634.47;;;6.30;100.00
19023;BME280;35226;48.606;8.858;2023-01-09T00:04:31;94629.75;;;6.30;100.00
19023;BME280;35226;48.606;8.858;2023-01-09T00:06:57;94625.19;;;6.37;100.00
19023;BME280;35226;48.606;8.858;2023-01-09T00:09:23;94617.56;;;6.31;100.00
19023;BME280;35226;48.606;8.858;2023-01-09T00:11:49;94616.03;;;6.30;100.00
19023;BME280;35226;48.606;8.858;2023-01-09T00:14:16;94619.69;;;6.37;100.00
19023;BME280;35226;48.606;8.858;2023-01-09T00:16:42;94615.44;;;6.26;100.00
19023;BME280;35226;48.606;8.858;2023-01-09T00:19:08;94617.72;;;6.37;100.00
19023;BME280;35226;48.606;8.858;2023-01-09T00:21:34;94618.03;;;6.30;100.00
19023;BME280;35226;48.606;8.858;2023-01-09T00:23:59;94620.75;;;6.30;100.00
19023;BME280;35226;48.606;8.858;2023-01-09T00:26:25;94624.28;;;6.30;100.00
19023;BME280;35226;48.606;8.858;2023-01-09T00:28:51;94623.81;;;6.41;100.00
19023;BME280;35226;48.606;8.858;2023-01-09T00:31:18;94620.75;;;6.48;100.00
19023;BME280;35226;48.606;8.858;2023-01-09T00:33:49;94617.88;;;6.52;100.00
19023;BME280;35226;48.606;8.858;2023-01-09T00:36:16;94598.22;;;6.44;100.00
19023;BME280;35226;48.606;8.858;2023-01-09T00:38:42;94607.50;;;6.38;100.00
19023;BME280;35226;48.606;8.858;2023-01-09T00:41:11;94608.44;;;6.35;100.00
19023;BME280;35226;48.606;8.858;2023-01-09T00:43:43;94639.06;;;6.33;100.00
19023;BME280;35226;48.606;8.858;2023-01-09T00:46:10;94625.66;;;6.35;100.00
19023;BME280;35226;48.606;8.858;2023-01-09T00:48:37;94625.34;;;6.33;100.00
19023;BME280;35226;48.606;8.858;2023-01-09T00:51:05;94637.81;;;6.98;100.00
19023;BME280;35226;48.606;8.858;2023-01-09T00:53:32;94621.06;;;6.32;100.00
19023;BME280;35226;48.606;8.858;2023-01-09T00:56:03;94615.72;;;6.38;100.00
19023;BME280;35226;48.606;8.858;2023-01-09T00:58:31;94610.09;;;6.50;100.00
19023;BME280;35226;48.606;8.858;2023-01-09T01:00:57;94610.09;;;6.59;100.00
19023;BME280;35226;48.606;8.858;2023-01-09T01:03:23;94611.00;;;6.47;100.00
19023;BME280;35226;48.606;8.858;2023-01-09T01:05:48;94608.88;;;6.60;100.00
19023;BME280;35226;48.606;8.858;2023-01-09T01:08:32;94610.41;;;6.34;100.00
19023;BME280;35226;48.606;8.858;2023-01-09T01:11:03;94613.47;;;6.45;100.00
19023;BME280;35226;48.606;8.858;2023-01-09T01:13:29;94621.53;;;6.49;100.00
19023;BME280;35226;48.606;8.858;2023-01-09T01:15:55;94619.25;;;6.56;100.00
19023;BME280;35226;48.606;8.858;2023-01-09T01:18:20;94608.75;;;6.46;100.00
19023;BME280;35226;48.606;8.858;2023-01-09T01:20:46;94613.47;;;6.45;100.00
19023;BME280;35226;48.606;8.858;2023-01-09T01:23:11;94614.69;;;6.44;100.00
19023;BME280;35226;48.606;8.858;2023-01-09T01:25:38;94610.25;;;6.47;100.00
19023;BME280;35226;48.606;8.858;2023-01-09T01:28:05;94614.53;;;6.29;100.00
19023;BME280;35226;48.606;8.858;2023-01-09T01:30:31;94615.91;;;6.43;100.00
19023;BME280;35226;48.606;8.858;2023-01-09T01:32:57;94622.28;;;6.40;100.00
19023;BME280;35226;48.606;8.858;2023-01-09T01:35:22;94616.22;;;6.45;100.00
19023;BME280;35226;48.606;8.858;2023-01-09T01:37:48;94629.00;;;6.57;100.00
19023;BME280;35226;48.606;8.858;2023-01-09T01:40:15;94618.19;;;6.54;100.00
19023;BME280;35226;48.606;8.858;2023-01-09T01:42:52;94618.78;;;6.40;100.00
19023;BME280;35226;48.606;8.858;2023-01-09T01:45:20;94617.88;;;6.34;100.00
19023;BME280;35226;48.606;8.858;2023-01-09T01:50:34;94603.56;;;6.29;100.00
19023;BME280;35226;48.606;8.858;2023-01-09T01:53:10;94597.47;;;6.25;100.00
19023;BME280;35226;48.606;8.858;2023-01-09T01:55:43;94605.53;;;6.29;100.00
19023;BME280;35226;48.606;8.858;2023-01-09T01:58:13;94616.94;;;6.27;100.00
19023;BME280;35226;48.606;8.858;2023-01-09T02:00:41;94614.06;;;6.31;100.00
19023;BME280;35226;48.606;8.858;2023-01-09T02:03:08;94612.41;;;6.43;100.00
19023;BME280;35226;48.606;8.858;2023-01-09T02:05:35;94605.97;;;6.37;100.00
19023;BME280;35226;48.606;8.858;2023-01-09T02:08:02;94616.66;;;6.25;100.00
19023;BME280;35226;48.606;8.858;2023-01-09T02:10:29;94625.78;;;6.22;100.00
19023;BME280;35226;48.606;8.858;2023-01-09T02:12:54;94612.72;;;6.36;100.00
19023;BME280;35226;48.606;8.858;2023-01-09T02:15:20;94605.97;;;6.27;100.00
19023;BME280;35226;48.606;8.858;2023-01-09T02:20:43;94609.34;;;6.41;100.00
19023;BME280;35226;48.606;8.858;2023-01-09T02:26:45;94621.06;;;6.32;100.00
19023;BME280;35226;48.606;8.858;2023-01-09T02:42:39;94644.69;;;6.29;100.00
19023;BME280;35226;48.606;8.858;2023-01-09T02:45:05;94649.38;;;6.11;100.00
19023;BME280;35226;48.606;8.858;2023-01-09T02:47:37;94658.03;;;6.00;100.00
19023;BME280;35226;48.606;8.858;2023-01-09T02:50:06;94650.56;;;5.91;100.00
19023;BME280;35226;48.606;8.858;2023-01-09T02:59:55;94621.38;;;6.61;100.00
19023;BME280;35226;48.606;8.858;2023-01-09T03:02:48;94617.38;;;6.90;100.00
19023;BME280;35226;48.606;8.858;2023-01-09T03:08:17;94617.88;;;6.61;100.00
19023;BME280;35226;48.606;8.858;2023-01-09T03:11:01;94617.88;;;6.61;100.00
19023;BME280;35226;48.606;8.858;2023-01-09T03:13:40;94609.78;;;6.76;100.00
19023;BME280;35226;48.606;8.858;2023-01-09T03:16:10;94618.03;;;6.39;100.00
19023;BME280;35226;48.606;8.858;2023-01-09T03:18:37;94626.88;;;6.61;100.00
19023;BME280;35226;48.606;8.858;2023-01-09T03:21:05;94620.47;;;6.74;100.00
19023;BME280;35226;48.606;8.858;2023-01-09T03:26:18;94634.88;;;7.11;100.00
19023;BME280;35226;48.606;8.858;2023-01-09T03:28:44;94643.31;;;6.80;100.00
19023;BME280;35226;48.606;8.858;2023-01-09T03:31:10;94649.41;;;7.02;100.00
19023;BME280;35226;48.606;8.858;2023-01-09T03:33:36;94653.22;;;7.04;100.00
19023;BME280;35226;48.606;8.858;2023-01-09T03:36:01;94661.28;;;7.08;100.00
19023;BME280;35226;48.606;8.858;2023-01-09T03:38:27;94663.75;;;6.60;100.00
19023;BME280;35226;48.606;8.858;2023-01-09T03:40:52;94669.69;;;6.86;100.00
19023;BME280;35226;48.606;8.858;2023-01-09T03:43:17;94672.75;;;6.61;100.00
19023;BME280;35226;48.606;8.858;2023-01-09T03:45:43;94679.31;;;6.82;100.00
19023;BME280;35226;48.606;8.858;2023-01-09T03:48:11;94696.69;;;6.97;100.00
19023;BME280;35226;48.606;8.858;2023-01-09T03:50:37;94695.28;;;7.20;100.00
19023;BME280;35226;48.606;8.858;2023-01-09T03:53:02;94698.50;;;6.91;100.00
19023;BME280;35226;48.606;8.858;2023-01-09T03:55:27;94719.09;;;6.95;100.00
19023;BME280;35226;48.606;8.858;2023-01-09T03:57:53;94745.63;;;6.71;100.00
19023;BME280;35226;48.606;8.858;2023-01-09T04:00:19;94757.84;;;6.97;100.00
19023;BME280;35226;48.606;8.858;2023-01-09T04:02:45;94766.50;;;6.78;100.00
19023;BME280;35226;48.606;8.858;2023-01-09T04:05:10;94777.25;;;6.26;100.00
19023;BME280;35226;48.606;8.858;2023-01-09T04:07:36;94783.31;;;6.21;100.00
19023;BME280;35226;48.606;8.858;2023-01-09T04:10:01;94770.63;;;6.06;100.00
19023;BME280;35226;48.606;8.858;2023-01-09T04:12:27;94785.78;;;5.98;100.00
19023;BME280;35226;48.606;8.858;2023-01-09T04:14:52;94800.22;;;5.89;100.00
19023;BME280;35226;48.606;8.858;2023-01-09T04:17:18;94819.47;;;5.76;100.00
19023;BME280;35226;48.606;8.858;2023-01-09T04:19:43;94812.22;;;5.61;100.00
19023;BME280;35226;48.606;8.858;2023-01-09T04:22:09;94820.69;;;5.53;100.00
19023;BME280;35226;48.606;8.858;2023-01-09T04:24:34;94838.16;;;5.47;100.00
19023;BME280;35226;48.606;8.858;2023-01-09T04:26:59;94826.03;;;5.35;100.00
19023;BME280;35226;48.606;8.858;2023-01-09T04:29:25;94833.50;;;5.35;100.00
19023;BME280;35226;48.606;8.858;2023-01-09T04:31:50;94831.13;;;5.24;100.00
19023;BME280;35226;48.606;8.858;2023-01-09T04:34:16;94837.81;;;5.23;100.00
19023;BME280;35226;48.606;8.858;2023-01-09T04:36:41;94844.50;;;5.22;100.00
19023;BME280;35226;48.606;8.858;2023-01-09T04:39:07;94852.06;;;5.18;100.00
19023;BME280;35226;48.606;8.858;2023-01-09T04:41:33;94860.91;;;5.22;100.00
19023;BME280;35226;48.606;8.858;2023-01-09T04:44:24;94846.25;;;5.29;100.00
19023;BME280;35226;48.606;8.858;2023-01-09T04:46:53;94858.53;;;5.11;100.00
19023;BME280;35226;48.606;8.858;2023-01-09T04:49:20;94854.16;;;5.14;100.00
19023;BME280;35226;48.606;8.858;2023-01-09T04:51:45;94875.03;;;4.86;100.00
19023;BME280;35226;48.606;8.858;2023-01-09T04:54:11;94877.88;;;4.82;100.00
19023;BME280;35226;48.606;8.858;2023-01-09T04:56:37;94877.78;;;4.86;100.00
19023;BME280;35226;48.606;8.858;2023-01-09T04:59:03;94889.94;;;4.72;100.00
19023;BME280;35226;48.606;8.858;2023-01-09T05:01:29;94887.41;;;4.78;100.00
19023;BME280;35226;48.606;8.858;2023-01-09T05:03:54;94885.66;;;4.84;100.00
19023;BME280;35226;48.606;8.858;2023-01-09T05:06:20;94903.41;;;4.67;100.00
19023;BME280;35226;48.606;8.858;2023-01-09T05:08:46;94914.66;;;4.81;100.00
19023;BME280;35226;48.606;8.858;2023-01-09T05:11:11;94912.81;;;4.53;100.00
19023;BME280;35226;48.606;8.858;2023-01-09T05:13:37;94912.81;;;4.66;100.00
19023;BME280;35226;48.606;8.858;2023-01-09T05:16:02;94916.50;;;4.84;100.00
19023;BME280;35226;48.606;8.858;2023-01-09T05:18:28;94915.88;;;4.68;100.00
19023;BME280;35226;48.606;8.858;2023-01-09T05:20:53;94914.34;;;4.79;100.00
19023;BME280;35226;48.606;8.858;2023-01-09T05:23:18;94916.31;;;4.66;100.00
19023;BME280;35226;48.606;8.858;2023-01-09T05:25:44;94912.28;;;4.58;100.00
19023;BME280;35226;48.606;8.858;2023-01-09T05:28:09;94924.06;;;4.55;100.00
19023;BME280;35226;48.606;8.858;2023-01-09T05:30:36;94929.88;;;4.57;100.00
19023;BME280;35226;48.606;8.858;2023-01-09T05:33:01;94932.50;;;4.61;100.00
19023;BME280;35226;48.606;8.858;2023-01-09T05:35:27;94938.28;;;4.63;100.00
19023;BME280;35226;48.606;8.858;2023-01-09T05:37:52;94936.19;;;4.41;100.00
19023;BME280;35226;48.606;8.858;2023-01-09T05:40:18;94949.56;;;4.65;100.00
19023;BME280;35226;48.606;8.858;2023-01-09T05:42:44;94943.13;;;4.46;100.00
19023;BME280;35226;48.606;8.858;2023-01-09T05:45:09;94946.16;;;4.35;100.00
19023;BME280;35226;48.606;8.858;2023-01-09T05:47:35;94950.53;;;4.45;100.00
19023;BME280;35226;48.606;8.858;2023-01-09T05:50:01;94945.19;;;4.42;100.00
19023;BME280;35226;48.606;8.858;2023-01-09T05:52:26;94938.75;;;4.49;100.00
19023;BME280;35226;48.606;8.858;2023-01-09T05:54:52;94949.47;;;4.56;100.00
19023;BME280;35226;48.606;8.858;2023-01-09T05:57:17;94952.31;;;4.39;100.00
19023;BME280;35226;48.606;8.858;2023-01-09T05:59:43;94944.53;;;4.38;100.00
19023;BME280;35226;48.606;8.858;2023-01-09T06:02:08;94946.94;;;4.49;100.00
19023;BME280;35226;48.606;8.858;2023-01-09T06:04:34;94949.44;;;4.43;100.00
19023;BME280;35226;48.606;8.858;2023-01-09T06:06:59;94949.09;;;4.16;100.00
19023;BME280;35226;48.606;8.858;2023-01-09T06:09:25;94950.41;;;4.24;100.00
19023;BME280;35226;48.606;8.858;2023-01-09T06:11:50;94950.75;;;4.26;100.00
19023;BME280;35226;48.606;8.858;2023-01-09T06:14:16;94956.00;;;4.20;100.00
19023;BME280;35226;48.606;8.858;2023-01-09T06:16:41;94965.38;;;4.19;100.00
19023;BME280;35226;48.606;8.858;2023-01-09T06:19:06;94973.59;;;4.19;100.00
19023;BME280;35226;48.606;8.858;2023-01-09T06:21:32;94971.06;;;4.25;100.00
19023;BME280;35226;48.606;8.858;2023-01-09T06:23:58;94972.41;;;4.33;100.00
19023;BME280;35226;48.606;8.858;2023-01-09T06:26:24;94976.66;;;4.34;100.00
19023;BME280;35226;48.606;8.858;2023-01-09T06:28:50;94981.38;;;4.21;100.00
19023;BME280;35226;48.606;8.858;2023-01-09T06:31:16;94980.53;;;4.49;100.00
19023;BME280;35226;48.606;8.858;2023-01-09T06:33:41;94981.38;;;4.21;100.00
19023;BME280;35226;48.606;8.858;2023-01-09T06:36:07;94983.53;;;4.26;100.00
19023;BME280;35226;48.606;8.858;2023-01-09T06:38:32;94983.28;;;4.07;100.00
19023;BME280;35226;48.606;8.858;2023-01-09T06:40:58;94984.84;;;4.21;100.00
19023;BME280;35226;48.606;8.858;2023-01-09T06:43:23;94986.25;;;4.13;100.00
19023;BME280;35226;48.606;8.858;2023-01-09T06:45:49;94983.25;;;4.36;100.00
19023;BME280;35226;48.606;8.858;2023-01-09T06:48:14;94995.03;;;4.33;100.00
19023;BME280;35226;48.606;8.858;2023-01-09T06:50:40;94995.59;;;4.28;100.00
19023;BME280;35226;48.606;8.858;2023-01-09T06:53:05;95005.91;;;4.08;100.00
19023;BME280;35226;48.606;8.858;2023-01-09T06:55:31;95007.03;;;4.11;100.00
19023;BME280;35226;48.606;8.858;2023-01-09T06:57:57;95007.13;;;4.07;100.00
19023;BME280;35226;48.606;8.858;2023-01-09T07:00:22;95002.34;;;4.24;100.00
19023;BME280;35226;48.606;8.858;2023-01-09T07:02:48;95001.72;;;3.91;100.00
19023;BME280;35226;48.606;8.858;2023-01-09T07:05:13;95006.44;;;4.03;100.00
19023;BME280;35226;48.606;8.858;2023-01-09T07:07:39;95011.38;;;4.08;100.00
19023;BME280;35226;48.606;8.858;2023-01-09T07:10:06;95007.19;;;4.03;100.00
19023;BME280;35226;48.606;8.858;2023-01-09T07:12:33;95018.84;;;4.20;100.00
19023;BME280;35226;48.606;8.858;2023-01-09T07:14:58;95019.63;;;4.21;100.00
19023;BME280;35226;48.606;8.858;2023-01-09T07:17:24;95021.00;;;4.13;100.00
19023;BME280;35226;48.606;8.858;2023-01-09T07:19:49;95024.00;;;4.18;100.00
19023;BME280;35226;48.606;8.858;2023-01-09T07:22:15;95031.31;;;4.21;100.00
19023;BME280;35226;48.606;8.858;2023-01-09T07:24:41;95028.25;;;4.19;100.00
19023;BME280;35226;48.606;8.858;2023-01-09T07:27:09;95033.38;;;4.17;100.00
19023;BME280;35226;48.606;8.858;2023-01-09T07:29:34;95038.41;;;4.19;100.00
19023;BME280;35226;48.606;8.858;2023-01-09T07:32:01;95033.59;;;4.23;100.00
19023;BME280;35226;48.606;8.858;2023-01-09T07:34:27;95036.16;;;4.30;100.00
19023;BME280;35226;48.606;8.858;2023-01-09T07:36:52;95045.81;;;4.05;100.00
19023;BME280;35226;48.606;8.858;2023-01-09T07:39:18;95045.28;;;4.11;100.00
19023;BME280;35226;48.606;8.858;2023-01-09T07:41:43;95058.94;;;4.11;100.00
19023;BME280;35226;48.606;8.858;2023-01-09T07:44:09;95052.53;;;4.17;100.00
19023;BME280;35226;48.606;8.858;2023-01-09T07:46:35;95051.94;;;4.09;100.00
19023;BME280;35226;48.606;8.858;2023-01-09T07:49:01;95053.75;;;4.29;100.00
19023;BME280;35226;48.606;8.858;2023-01-09T07:51:26;95047.41;;;4.19;100.00
19023;BME280;35226;48.606;8.858;2023-01-09T07:53:51;95054.28;;;4.24;100.00
19023;BME280;35226;48.606;8.858;2023-01-09T07:56:17;95053.91;;;4.09;100.00
19023;BME280;35226;48.606;8.858;2023-01-09T07:58:43;95044.19;;;4.08;100.00
19023;BME280;35226;48.606;8.858;2023-01-09T08:01:08;95045.47;;;4.03;100.00
19023;BME280;35226;48.606;8.858;2023-01-09T08:03:33;95047.34;;;4.06;100.00
19023;BME280;35226;48.606;8.858;2023-01-09T08:05:59;95050.06;;;4.06;100.00
19023;BME280;35226;48.606;8.858;2023-01-09T08:08:25;95056.59;;;4.25;100.00
19023;BME280;35226;48.606;8.858;2023-01-09T08:10:50;95046.50;;;4.22;100.00
19023;BME280;35226;48.606;8.858;2023-01-09T08:13:16;95049.59;;;4.24;100.00
19023;BME280;35226;48.606;8.858;2023-01-09T08:15:41;95046.75;;;4.28;100.00
19023;BME280;35226;48.606;8.858;2023-01-09T08:18:07;95048.53;;;4.34;100.00
19023;BME280;35226;48.606;8.858;2023-01-09T08:20:32;95049.50;;;3.99;100.00
19023;BME280;35226;48.606;8.858;2023-01-09T08:22:58;95043.69;;;3.97;100.00
19023;BME280;35226;48.606;8.858;2023-01-09T08:25:24;95051.34;;;4.02;100.00
19023;BME280;35226;48.606;8.858;2023-01-09T08:27:49;95046.06;;;4.11;100.00
19023;BME280;35226;48.606;8.858;2023-01-09T08:30:15;95051.34;;;4.02;100.00
19023;BME280;35226;48.606;8.858;2023-01-09T08:32:41;95053.16;;;4.08;100.00
19023;BME280;35226;48.606;8.858;2023-01-09T08:35:08;95052.53;;;4.17;100.00
19023;BME280;35226;48.606;8.858;2023-01-09T08:37:34;95053.81;;;4.13;100.00
19023;BME280;35226;48.606;8.858;2023-01-09T08:39:59;95057.13;;;4.20;100.00
19023;BME280;35226;48.606;8.858;2023-01-09T08:42:24;95051.59;;;4.36;100.00
19023;BME280;35226;48.606;8.858;2023-01-09T08:45:10;95045.19;;;4.56;100.00
19023;BME280;35226;48.606;8.858;2023-01-09T08:47:55;95040.16;;;4.54;100.00
19023;BME280;35226;48.606;8.858;2023-01-09T08:50:21;95038.66;;;4.24;100.00
19023;BME280;35226;48.606;8.858;2023-01-09T08:52:47;95043.38;;;4.36;100.00
19023;BME280;35226;48.606;8.858;2023-01-09T08:55:12;95044.38;;;4.42;100.00
19023;BME280;35226;48.606;8.858;2023-01-09T08:57:46;95038.94;;;4.55;100.00
19023;BME280;35226;48.606;8.858;2023-01-09T09:00:12;95038.81;;;4.46;100.00
19023;BME280;35226;48.606;8.858;2023-01-09T09:02:38;95048.63;;;4.31;100.00
19023;BME280;35226;48.606;8.858;2023-01-09T09:05:03;95048.19;;;4.32;100.00
19023;BME280;35226;48.606;8.858;2023-01-09T09:07:29;95039.81;;;4.39;100.00
19023;BME280;35226;48.606;8.858;2023-01-09T09:09:55;95045.81;;;4.47;100.00
19023;BME280;35226;48.606;8.858;2023-01-09T09:12:21;95040.47;;;4.56;100.00
19023;BME280;35226;48.606;8.858;2023-01-09T09:14:47;95054.06;;;4.60;100.00
19023;BME280;35226;48.606;8.858;2023-01-09T09:17:31;95047.59;;;4.54;100.00
19023;BME280;35226;48.606;8.858;2023-01-09T09:19:58;95043.66;;;4.55;100.00
19023;BME280;35226;48.606;8.858;2023-01-09T09:22:24;95056.22;;;4.52;100.00
19023;BME280;35226;48.606;8.858;2023-01-09T09:24:50;95056.47;;;4.58;100.00
19023;BME280;35226;48.606;8.858;2023-01-09T09:27:16;95056.16;;;4.81;100.00
19023;BME280;35226;48.606;8.858;2023-01-09T09:29:41;95062.06;;;4.67;100.00
19023;BME280;35226;48.606;8.858;2023-01-09T09:32:07;95064.69;;;4.83;100.00
19023;BME280;35226;48.606;8.858;2023-01-09T09:34:32;95075.56;;;4.87;100.00
19023;BME280;35226;48.606;8.858;2023-01-09T09:36:58;95070.63;;;4.94;100.00
19023;BME280;35226;48.606;8.858;2023-01-09T09:39:23;95064.63;;;4.99;100.00
19023;BME280;35226;48.606;8.858;2023-01-09T09:47:52;95088.28;;;5.18;100.00
19023;BME280;35226;48.606;8.858;2023-01-09T09:53:09;95083.34;;;5.26;100.00
19023;BME280;35226;48.606;8.858;2023-01-09T09:55:38;95078.53;;;5.30;100.00
19023;BME280;35226;48.606;8.858;2023-01-09T09:58:24;95084.88;;;5.40;100.00
19023;BME280;35226;48.606;8.858;2023-01-09T10:00:53;95084.44;;;5.41;100.00
19023;BME280;35226;48.606;8.858;2023-01-09T10:05:51;95077.97;;;5.22;100.00
19023;BME280;35226;48.606;8.858;2023-01-09T10:10:53;95072.59;;;5.32;100.00
19023;BME280;35226;48.606;8.858;2023-01-09T10:13:22;95064.72;;;5.21;100.00
19023;BME280;35226;48.606;8.858;2023-01-09T10:25:01;95062.41;;;5.32;100.00
19023;BME280;35226;48.606;8.858;2023-01-09T10:39:38;95042.28;;;5.26;100.00
19023;BME280;35226;48.606;8.858;2023-01-09T10:42:17;95053.22;;;5.39;100.00
19023;BME280;35226;48.606;8.858;2023-01-09T10:47:17;95046.75;;;5.33;100.00
19023;BME280;35226;48.606;8.858;2023-01-09T10:49:45;95041.94;;;5.24;100.00
19023;BME280;35226;48.606;8.858;2023-01-09T10:52:15;95045.88;;;5.23;100.00
19023;BME280;35226;48.606;8.858;2023-01-09T10:54:54;95049.94;;;5.31;100.00
19023;BME280;35226;48.606;8.858;2023-01-09T10:57:44;95042.25;;;5.39;100.00
19023;BME280;35226;48.606;8.858;2023-01-09T11:00:16;95040.06;;;5.34;100.00
19023;BME280;35226;48.606;8.858;2023-01-09T11:02:42;95031.72;;;5.50;100.00
19023;BME280;35226;48.606;8.858;2023-01-09T11:05:11;95029.03;;;5.37;100.00
19023;BME280;35226;48.606;8.858;2023-01-09T11:07:41;95031.28;;;5.39;100.00
19023;BME280;35226;48.606;8.858;2023-01-09T11:10:09;95022.19;;;5.54;100.00
19023;BME280;35226;48.606;8.858;2023-01-09T11:12:39;95026.56;;;5.52;100.00
19023;BME280;35226;48.606;8.858;2023-01-09T11:17:46;95011.22;;;5.67;100.00
19023;BME280;35226;48.606;8.858;2023-01-09T11:20:16;95013.94;;;5.67;100.00
19023;BME280;35226;48.606;8.858;2023-01-09T11:25:14;95014.31;;;5.91;100.00
19023;BME280;35226;48.606;8.858;2023-01-09T11:27:40;95009.19;;;5.93;100.00
19023;BME280;35226;48.606;8.858;2023-01-09T11:30:20;95011.59;;;5.78;100.00
19023;BME280;35226;48.606;8.858;2023-01-09T11:32:53;95022.13;;;5.92;100.00
19023;BME280;35226;48.606;8.858;2023-01-09T11:35:22;95006.06;;;6.04;100.00
19023;BME280;35226;48.606;8.858;2023-01-09T11:37:57;95004.66;;;5.99;100.00
19023;BME280;35226;48.606;8.858;2023-01-09T11:43:34;95006.91;;;6.13;100.00
19023;BME280;35226;48.606;8.858;2023-01-09T11:46:09;94991.53;;;6.16;100.00
19023;BME280;35226;48.606;8.858;2023-01-09T11:48:54;95003.09;;;5.98;100.00
19023;BME280;35226;48.606;8.858;2023-01-09T11:51:24;94990.81;;;6.03;100.00
19023;BME280;35226;48.606;8.858;2023-01-09T11:54:23;94999.50;;;6.01;100.00
19023;BME280;35226;48.606;8.858;2023-01-09T11:56:50;94998.78;;;6.10;100.00
19023;BME280;35226;48.606;8.858;2023-01-09T11:59:27;95000.06;;;6.40;100.00
19023;BME280;35226;48.606;8.858;2023-01-09T12:04:34;94999.78;;;6.47;100.00
19023;BME280;35226;48.606;8.858;2023-01-09T12:16:11;95007.97;;;7.30;100.00
19023;BME280;35226;48.606;8.858;2023-01-09T12:18:44;94994.59;;;7.60;100.00
19023;BME280;35226;48.606;8.858;2023-01-09T12:23:59;94994.78;;;7.84;100.00
19023;BME280;35226;48.606;8.858;2023-01-09T12:26:35;94989.44;;;7.71;100.00
19023;BME280;35226;48.606;8.858;2023-01-09T12:34:35;95002.25;;;7.16;100.00
19023;BME280;35226;48.606;8.858;2023-01-09T12:48:57;95013.94;;;6.67;100.00
19023;BME280;35226;48.606;8.858;2023-01-09T12:51:41;95019.19;;;6.74;100.00
19023;BME280;35226;48.606;8.858;2023-01-09T12:56:46;95020.41;;;6.51;100.00
19023;BME280;35226;48.606;8.858;2023-01-09T12:59:42;95029.13;;;6.59;100.00
19023;BME280;35226;48.606;8.858;2023-01-09T13:04:57;95033.34;;;6.73;100.00
19023;BME280;35226;48.606;8.858;2023-01-09T13:07:53;95028.88;;;6.66;100.00
19023;BME280;35226;48.606;8.858;2023-01-09T13:10:41;95049.06;;;6.50;100.00
19023;BME280;35226;48.606;8.858;2023-01-09T13:13:17;95046.56;;;6.65;100.00
19023;BME280;35226;48.606;8.858;2023-01-09T13:15:51;95043.13;;;6.52;100.00
19023;BME280;35226;48.606;8.858;2023-01-09T13:18:28;95049.19;;;6.47;100.00
19023;BME280;35226;48.606;8.858;2023-01-09T13:20:56;95042.50;;;6.26;100.00
19023;BME280;35226;48.606;8.858;2023-01-09T13:26:14;95055.00;;;6.49;100.00
19023;BME280;35226;48.606;8.858;2023-01-09T13:28:48;95054.94;;;6.61;100.00
19023;BME280;35226;48.606;8.858;2023-01-09T13:31:32;95056.41;;;6.31;100.00
19023;BME280;35226;48.606;8.858;2023-01-09T13:34:08;95057.78;;;6.58;100.00
19023;BME280;35226;48.606;8.858;2023-01-09T13:36:37;95067.06;;;6.51;100.00
19023;BME280;35226;48.606;8.858;2023-01-09T13:39:04;95078.22;;;6.35;100.00
19023;BME280;35226;48.606;8.858;2023-01-09T13:41:30;95063.09;;;6.30;100.00
19023;BME280;35226;48.606;8.858;2023-01-09T13:46:49;95065.44;;;6.19;100.00
19023;BME280;35226;48.606;8.858;2023-01-09T13:52:37;95069.22;;;6.35;100.00
19023;BME280;35226;48.606;8.858;2023-01-09T13:55:22;95073.03;;;6.37;100.00
19023;BME280;35226;48.606;8.858;2023-01-09T14:03:20;95066.47;;;6.35;100.00
19023;BME280;35226;48.606;8.858;2023-01-09T14:08:20;95070.19;;;6.41;100.00
19023;BME280;35226;48.606;8.858;2023-01-09T14:10:48;95074.44;;;6.42;100.00
19023;BME280;35226;48.606;8.858;2023-01-09T14:13:30;95077.63;;;6.40;100.00
19023;BME280;35226;48.606;8.858;2023-01-09T14:18:32;95082.75;;;6.73;100.00
19023;BME280;35226;48.606;8.858;2023-01-09T14:21:01;95090.00;;;6.88;100.00
19023;BME280;35226;48.606;8.858;2023-01-09T14:23:32;95091.16;;;6.78;100.00
19023;BME280;35226;48.606;8.858;2023-01-09T14:25:58;95097.13;;;6.55;100.00
19023;BME280;35226;48.606;8.858;2023-01-09T14:28:29;95093.59;;;6.54;100.00
19023;BME280;35226;48.606;8.858;2023-01-09T14:33:25;95114.56;;;6.48;100.00
19023;BME280;35226;48.606;8.858;2023-01-09T14:36:15;95135.13;;;6.44;100.00
19023;BME280;35226;48.606;8.858;2023-01-09T14:38:52;95129.06;;;6.49;100.00
19023;BME280;35226;48.606;8.858;2023-01-09T14:44:02;95137.66;;;6.38;100.00
19023;BME280;35226;48.606;8.858;2023-01-09T14:46:32;95148.97;;;6.40;100.00
19023;BME280;35226;48.606;8.858;2023-01-09T14:49:05;95154.13;;;6.38;100.00
19023;BME280;35226;48.606;8.858;2023-01-09T14:51:37;95163.00;;;6.42;100.00
19023;BME280;35226;48.606;8.858;2023-01-09T14:54:32;95162.97;;;6.08;100.00
19023;BME280;35226;48.606;8.858;2023-01-09T14:56:58;95175.81;;;6.11;100.00
19023;BME280;35226;48.606;8.858;2023-01-09T14:59:26;95175.28;;;6.03;100.00
19023;BME280;35226;48.606;8.858;2023-01-09T15:01:52;95169.44;;;6.14;100.00
19023;BME280;35226;48.606;8.858;2023-01-09T15:04:28;95182.06;;;6.11;100.00
19023;BME280;35226;48.606;8.858;2023-01-09T15:06:56;95186.53;;;5.80;100.00
19023;BME280;35226;48.606;8.858;2023-01-09T15:09:32;95196.53;;;5.74;100.00
19023;BME280;35226;48.606;8.858;2023-01-09T15:12:06;95199.50;;;5.92;100.00
19023;BME280;35226;48.606;8.858;2023-01-09T15:14:35;95200.28;;;5.67;100.00
19023;BME280;35226;48.606;8.858;2023-01-09T15:17:04;95212.53;;;5.63;100.00
19023;BME280;35226;48.606;8.858;2023-01-09T15:19:31;95210.66;;;5.72;100.00
19023;BME280;35226;48.606;8.858;2023-01-09T15:22:00;95219.25;;;5.87;100.00
19023;BME280;35226;48.606;8.858;2023-01-09T15:24:29;95219.56;;;5.76;100.00
19023;BME280;35226;48.606;8.858;2023-01-09T15:27:02;95214.25;;;5.31;100.00
19023;BME280;35226;48.606;8.858;2023-01-09T15:29:28;95216.84;;;5.22;100.00
19023;BME280;35226;48.606;8.858;2023-01-09T15:32:02;95216.44;;;5.49;100.00